createdAt,value
2022-12-22T00:02:07.449Z,92.94
2022-12-22T00:04:48.693Z,93.78
2022-12-22T00:07:29.496Z,94.95
2022-12-22T00:10:10.299Z,95.36
2022-12-22T00:12:53.557Z,94.24
2022-12-22T00:15:36.450Z,94.88
2022-12-22T00:18:18.311Z,94.06
2022-12-22T00:20:59.195Z,94.75
2022-12-22T00:23:40.198Z,94.13
2022-12-22T00:26:21.718Z,94.70
2022-12-22T00:29:04.381Z,94.59
2022-12-22T00:31:46.384Z,94.91
2022-12-22T00:34:33.492Z,96.09
2022-12-22T00:37:14.550Z,96.68
2022-12-22T00:39:55.594Z,95.79
2022-12-22T00:42:36.478Z,96.22
2022-12-22T00:45:18.913Z,95.80
2022-12-22T00:48:01.361Z,96.02
2022-12-22T00:50:48.434Z,97.12
2022-12-22T00:53:29.329Z,97.54
2022-12-22T00:56:10.161Z,96.73
2022-12-22T00:58:51.545Z,97.52
2022-12-22T01:01:34.334Z,97.11
2022-12-22T01:04:15.454Z,96.78
2022-12-22T01:06:56.313Z,97.60
2022-12-22T01:09:37.685Z,97.73
2022-12-22T01:12:19.032Z,97.87
2022-12-22T01:14:59.857Z,99.07
2022-12-22T01:17:42.324Z,100.00
2022-12-22T01:20:25.197Z,100.00
2022-12-22T01:23:07.198Z,100.00
2022-12-22T01:25:48.137Z,100.00
2022-12-22T01:28:34.302Z,100.00
2022-12-22T01:31:15.165Z,99.94
2022-12-22T01:33:57.393Z,100.00
2022-12-22T01:36:38.327Z,100.00
2022-12-22T01:39:19.259Z,100.00
2022-12-22T01:42:00.536Z,100.00
2022-12-22T01:44:41.683Z,100.00
2022-12-22T01:47:56.095Z,100.00
2022-12-22T01:50:45.072Z,100.00
2022-12-22T01:53:31.269Z,100.00
2022-12-22T01:56:13.000Z,100.00
2022-12-22T01:59:00.039Z,100.00
2022-12-22T02:01:41.003Z,100.00
2022-12-22T02:04:22.154Z,100.00
2022-12-22T02:07:05.496Z,100.00
2022-12-22T02:09:58.380Z,100.00
2022-12-22T02:12:47.271Z,100.00
2022-12-22T02:15:41.737Z,100.00
2022-12-22T02:18:29.212Z,100.00
2022-12-22T02:21:14.671Z,100.00
2022-12-22T02:24:19.384Z,100.00
2022-12-22T02:27:05.345Z,100.00
2022-12-22T02:29:51.790Z,100.00
2022-12-22T02:32:33.447Z,100.00
2022-12-22T02:35:14.644Z,100.00
2022-12-22T02:38:05.850Z,100.00
2022-12-22T02:40:52.338Z,100.00
2022-12-22T02:43:48.765Z,100.00
2022-12-22T02:46:39.109Z,100.00
2022-12-22T02:49:24.803Z,100.00
2022-12-22T02:52:13.984Z,100.00
2022-12-22T02:54:55.422Z,99.95
2022-12-22T02:57:37.853Z,100.00
2022-12-22T03:00:20.471Z,100.00
2022-12-22T03:03:01.453Z,100.00
2022-12-22T03:05:42.559Z,100.00
2022-12-22T03:08:23.686Z,100.00
2022-12-22T03:11:04.957Z,100.00
2022-12-22T03:13:45.890Z,100.00
2022-12-22T03:16:28.460Z,100.00
2022-12-22T03:19:09.578Z,99.90
2022-12-22T03:21:51.165Z,99.68
2022-12-22T03:24:32.060Z,99.69
2022-12-22T03:26:55.724Z,100.00
2022-12-22T03:29:19.330Z,100.00
2022-12-22T03:31:44.763Z,100.00
2022-12-22T03:34:08.407Z,100.00
2022-12-22T03:36:32.136Z,100.00
2022-12-22T03:38:55.715Z,99.85
2022-12-22T03:41:33.221Z,99.57
2022-12-22T03:44:14.270Z,100.00
2022-12-22T03:46:38.029Z,98.79
2022-12-22T03:49:11.708Z,98.71
2022-12-22T03:51:36.293Z,99.29
2022-12-22T03:54:00.056Z,100.00
2022-12-22T03:56:23.748Z,99.93
2022-12-22T03:58:47.386Z,100.00
2022-12-22T04:01:11.107Z,98.82
2022-12-22T04:03:34.916Z,99.67
2022-12-22T04:06:00.241Z,98.86
2022-12-22T04:08:23.863Z,98.67
2022-12-22T04:11:05.195Z,99.39
2022-12-22T04:13:28.872Z,98.08
2022-12-22T04:15:52.469Z,99.26
2022-12-22T04:18:16.097Z,99.80
2022-12-22T04:20:39.740Z,100.00
2022-12-22T04:23:05.277Z,99.69
2022-12-22T04:25:29.726Z,99.55
2022-12-22T04:27:53.490Z,99.99
2022-12-22T04:30:17.556Z,99.67
2022-12-22T04:32:41.271Z,100.00
2022-12-22T04:35:05.627Z,99.14
2022-12-22T04:37:29.505Z,99.96
2022-12-22T04:39:54.476Z,99.46
2022-12-22T04:42:18.298Z,100.00
2022-12-22T04:44:41.892Z,100.00
2022-12-22T04:47:05.636Z,100.00
2022-12-22T04:49:29.288Z,100.00
2022-12-22T04:51:52.924Z,100.00
2022-12-22T04:54:16.715Z,100.00
2022-12-22T04:56:41.769Z,100.00
2022-12-22T04:59:05.419Z,100.00
2022-12-22T05:01:29.588Z,98.81
2022-12-22T05:03:53.273Z,98.81
2022-12-22T05:06:17.193Z,98.28
2022-12-22T05:08:41.010Z,98.41
2022-12-22T05:11:04.872Z,98.10
2022-12-22T05:13:30.003Z,98.31
2022-12-22T05:15:53.674Z,98.16
2022-12-22T05:18:17.237Z,98.56
2022-12-22T05:20:40.928Z,98.61
2022-12-22T05:23:04.564Z,99.67
2022-12-22T05:25:34.412Z,100.00
2022-12-22T05:27:59.673Z,100.00
2022-12-22T05:30:24.714Z,100.00
2022-12-22T05:32:49.054Z,100.00
2022-12-22T05:35:13.143Z,100.00
2022-12-22T05:37:37.250Z,100.00
2022-12-22T05:40:00.976Z,100.00
2022-12-22T05:42:36.862Z,100.00
2022-12-22T05:45:00.526Z,100.00
2022-12-22T05:47:25.532Z,100.00
2022-12-22T05:49:49.188Z,99.94
2022-12-22T05:52:12.757Z,100.00
2022-12-22T05:54:36.427Z,100.00
2022-12-22T05:57:00.010Z,100.00
2022-12-22T05:59:23.731Z,100.00
2022-12-22T06:01:47.387Z,100.00
2022-12-22T06:04:12.619Z,100.00
2022-12-22T06:06:36.393Z,100.00
2022-12-22T06:09:00.115Z,100.00
2022-12-22T06:11:23.724Z,100.00
2022-12-22T06:13:47.635Z,100.00
2022-12-22T06:16:11.308Z,100.00
2022-12-22T06:18:35.008Z,100.00
2022-12-22T06:21:00.013Z,100.00
2022-12-22T06:23:24.171Z,99.92
2022-12-22T06:25:56.959Z,99.30
2022-12-22T06:28:20.611Z,99.25
2022-12-22T06:30:44.296Z,98.64
2022-12-22T06:33:07.933Z,100.00
2022-12-22T06:35:31.765Z,100.00
2022-12-22T06:37:56.949Z,100.00
2022-12-22T06:40:20.758Z,100.00
2022-12-22T06:43:08.022Z,100.00
2022-12-22T06:45:32.244Z,100.00
2022-12-22T06:47:56.193Z,100.00
2022-12-22T06:50:19.981Z,100.00
2022-12-22T06:52:43.554Z,100.00
2022-12-22T06:55:10.049Z,99.95
2022-12-22T06:57:33.728Z,100.00
2022-12-22T06:59:58.047Z,100.00
2022-12-22T07:02:22.087Z,99.86
2022-12-22T07:04:46.498Z,100.00
2022-12-22T07:07:10.119Z,100.00
2022-12-22T07:09:33.833Z,99.19
2022-12-22T07:11:58.856Z,98.87
2022-12-22T07:14:22.738Z,100.00
2022-12-22T07:16:47.111Z,100.00
2022-12-22T07:19:11.033Z,99.33
2022-12-22T07:21:34.664Z,100.00
2022-12-22T07:23:58.480Z,100.00
2022-12-22T07:26:22.117Z,100.00
2022-12-22T07:28:47.210Z,100.00
2022-12-22T07:31:12.101Z,100.00
2022-12-22T07:33:35.957Z,100.00
2022-12-22T07:36:05.953Z,100.00
2022-12-22T07:38:29.606Z,99.68
2022-12-22T07:41:04.591Z,99.70
2022-12-22T07:43:28.207Z,99.04
2022-12-22T07:45:53.374Z,98.96
2022-12-22T07:48:34.136Z,99.08
2022-12-22T07:51:03.423Z,100.00
2022-12-22T07:53:27.042Z,100.00
2022-12-22T07:55:50.686Z,100.00
2022-12-22T07:58:14.283Z,99.79
2022-12-22T08:00:37.951Z,99.54
2022-12-22T08:03:03.155Z,100.00
2022-12-22T08:05:27.436Z,100.00
2022-12-22T08:07:52.891Z,100.00
2022-12-22T08:10:17.395Z,100.00
2022-12-22T08:12:41.300Z,99.67
2022-12-22T08:15:05.738Z,99.47
2022-12-22T08:17:29.680Z,99.81
2022-12-22T08:19:54.879Z,100.00
2022-12-22T08:22:18.537Z,100.00
2022-12-22T08:24:42.204Z,100.00
2022-12-22T08:27:12.121Z,99.57
2022-12-22T08:29:40.703Z,100.00
2022-12-22T08:32:05.131Z,100.00
2022-12-22T08:34:29.001Z,100.00
2022-12-22T08:36:58.431Z,100.00
2022-12-22T08:39:25.217Z,100.00
2022-12-22T08:41:52.020Z,100.00
2022-12-22T08:44:15.739Z,100.00
2022-12-22T08:46:39.370Z,100.00
2022-12-22T08:49:03.017Z,100.00
2022-12-22T08:51:26.745Z,100.00
2022-12-22T08:54:07.354Z,100.00
2022-12-22T08:56:32.251Z,100.00
2022-12-22T08:58:55.814Z,100.00
2022-12-22T09:01:21.500Z,100.00
2022-12-22T09:03:49.479Z,100.00
2022-12-22T09:06:13.130Z,100.00
2022-12-22T09:08:36.713Z,100.00
2022-12-22T09:11:06.330Z,100.00
2022-12-22T09:13:29.911Z,100.00
2022-12-22T09:15:53.636Z,100.00
2022-12-22T09:18:17.223Z,100.00
2022-12-22T09:20:40.918Z,100.00
2022-12-22T09:23:04.599Z,100.00
2022-12-22T09:25:28.434Z,100.00
2022-12-22T09:27:53.459Z,100.00
2022-12-22T09:30:17.488Z,100.00
2022-12-22T09:32:41.075Z,100.00
2022-12-22T09:35:05.271Z,100.00
2022-12-22T09:37:28.933Z,100.00
2022-12-22T09:39:52.589Z,100.00
2022-12-22T09:42:20.522Z,100.00
2022-12-22T09:44:50.351Z,100.00
2022-12-22T09:47:22.865Z,99.63
2022-12-22T09:49:46.854Z,100.00
2022-12-22T09:52:26.390Z,100.00
2022-12-22T09:54:50.970Z,100.00
2022-12-22T09:57:14.804Z,100.00
2022-12-22T09:59:38.471Z,100.00
2022-12-22T10:02:16.951Z,99.56
2022-12-22T10:05:02.218Z,99.80
2022-12-22T10:07:32.436Z,98.96
2022-12-22T10:09:56.828Z,99.04
2022-12-22T10:12:23.994Z,100.00
2022-12-22T10:14:50.418Z,100.00
2022-12-22T10:17:26.044Z,99.84
2022-12-22T10:19:51.407Z,100.00
2022-12-22T10:22:31.205Z,100.00
2022-12-22T10:24:55.211Z,100.00
2022-12-22T10:27:25.822Z,100.00
2022-12-22T10:29:53.348Z,100.00
2022-12-22T10:32:21.091Z,100.00
2022-12-22T10:35:03.219Z,100.00
2022-12-22T10:37:34.479Z,100.00
2022-12-22T10:39:58.250Z,100.00
2022-12-22T10:42:22.036Z,100.00
2022-12-22T10:44:49.548Z,99.76
2022-12-22T10:47:18.177Z,99.27
2022-12-22T10:49:48.068Z,99.29
2022-12-22T10:52:15.306Z,99.26
2022-12-22T10:54:41.156Z,99.30
2022-12-22T10:57:12.437Z,98.83
2022-12-22T10:59:49.277Z,97.79
2022-12-22T11:02:35.362Z,97.02
2022-12-22T11:05:08.723Z,97.04
2022-12-22T11:07:35.643Z,97.79
2022-12-22T11:09:59.434Z,97.91
2022-12-22T11:12:30.787Z,97.70
2022-12-22T11:15:02.135Z,97.51
2022-12-22T11:17:34.840Z,97.17
2022-12-22T11:20:34.485Z,97.67
2022-12-22T11:23:04.788Z,98.71
2022-12-22T11:25:41.406Z,98.61
2022-12-22T11:28:36.812Z,98.31
2022-12-22T11:31:18.990Z,98.20
2022-12-22T11:34:00.423Z,98.19
2022-12-22T11:36:39.323Z,98.28
2022-12-22T11:39:10.158Z,99.99
2022-12-22T11:41:51.406Z,100.00
2022-12-22T11:44:38.720Z,100.00
2022-12-22T11:47:11.874Z,100.00
2022-12-22T11:50:59.470Z,100.00
2022-12-22T11:53:16.147Z,100.00
2022-12-22T11:55:44.497Z,100.00
2022-12-22T11:58:33.648Z,100.00
2022-12-22T12:01:17.894Z,100.00
2022-12-22T12:04:39.389Z,100.00
2022-12-22T12:07:23.522Z,100.00
2022-12-22T12:10:05.189Z,100.00
2022-12-22T12:12:39.848Z,99.22
2022-12-22T12:15:26.820Z,98.82
2022-12-22T12:18:40.634Z,98.35
2022-12-22T12:21:27.254Z,98.60
2022-12-22T12:24:25.779Z,97.79
2022-12-22T12:27:01.158Z,97.38
2022-12-22T12:29:28.271Z,97.20
2022-12-22T12:31:59.682Z,96.76
2022-12-22T12:34:24.305Z,96.81
2022-12-22T12:36:53.360Z,96.84
2022-12-22T12:39:25.508Z,98.18
2022-12-22T12:42:02.179Z,97.28
2022-12-22T12:44:32.442Z,96.31
2022-12-22T12:47:08.260Z,99.21
2022-12-22T12:50:27.991Z,98.71
2022-12-22T12:53:16.750Z,97.48
2022-12-22T12:56:13.424Z,98.49
2022-12-22T12:58:58.309Z,98.53
2022-12-22T13:02:00.807Z,97.59
2022-12-22T13:05:15.870Z,96.51
2022-12-22T13:08:16.862Z,96.30
2022-12-22T13:10:45.781Z,95.61
2022-12-22T13:13:52.184Z,95.57
2022-12-22T13:16:39.822Z,97.68
2022-12-22T13:19:21.259Z,97.59
2022-12-22T13:21:55.129Z,97.13
2022-12-22T13:24:26.318Z,96.38
2022-12-22T13:26:55.323Z,96.39
2022-12-22T13:29:29.148Z,96.33
2022-12-22T13:31:59.377Z,97.75
2022-12-22T13:35:04.204Z,96.37
2022-12-22T13:37:26.885Z,97.17
2022-12-22T13:40:17.225Z,97.11
2022-12-22T13:42:44.163Z,96.46
2022-12-22T13:45:16.752Z,98.21
2022-12-22T13:47:44.513Z,97.96
2022-12-22T13:50:17.548Z,97.07
2022-12-22T13:52:42.295Z,97.27
2022-12-22T13:55:15.224Z,97.73
2022-12-22T13:57:41.256Z,98.12
2022-12-22T14:00:05.932Z,100.00
2022-12-22T14:02:35.090Z,100.00
2022-12-22T14:05:10.805Z,100.00
2022-12-22T14:07:34.525Z,99.61
2022-12-22T14:09:58.781Z,100.00
2022-12-22T14:12:24.927Z,100.00
2022-12-22T14:14:51.462Z,100.00
2022-12-22T14:17:23.963Z,99.89
2022-12-22T14:19:52.180Z,100.00
2022-12-22T14:22:21.144Z,100.00
2022-12-22T14:24:49.110Z,100.00
2022-12-22T14:27:20.572Z,99.92
2022-12-22T14:29:44.330Z,100.00
2022-12-22T14:32:08.140Z,100.00
2022-12-22T14:34:35.429Z,99.70
2022-12-22T14:37:02.494Z,100.00
2022-12-22T14:39:30.886Z,100.00
2022-12-22T14:41:57.486Z,100.00
2022-12-22T14:44:24.998Z,100.00
2022-12-22T14:47:16.221Z,100.00
2022-12-22T14:49:48.213Z,100.00
2022-12-22T14:52:25.677Z,100.00
2022-12-22T14:54:54.001Z,100.00
2022-12-22T14:57:24.992Z,100.00
2022-12-22T15:00:06.095Z,100.00
2022-12-22T15:02:39.135Z,100.00
2022-12-22T15:05:16.101Z,100.00
2022-12-22T15:08:06.552Z,100.00
2022-12-22T15:10:40.624Z,100.00
2022-12-22T15:13:09.275Z,100.00
2022-12-22T15:15:34.683Z,100.00
2022-12-22T15:17:58.760Z,100.00
2022-12-22T15:20:25.692Z,100.00
2022-12-22T15:22:49.967Z,100.00
2022-12-22T15:25:19.599Z,100.00
2022-12-22T15:27:44.795Z,100.00
2022-12-22T15:30:10.138Z,100.00
2022-12-22T15:32:37.898Z,100.00
2022-12-22T15:35:03.460Z,100.00
2022-12-22T15:37:27.129Z,100.00
2022-12-22T15:39:51.078Z,100.00
2022-12-22T15:42:14.847Z,100.00
2022-12-22T15:44:39.904Z,100.00
2022-12-22T15:47:03.650Z,100.00
2022-12-22T15:49:29.331Z,100.00
2022-12-22T15:51:57.195Z,100.00
2022-12-22T15:54:21.352Z,100.00
2022-12-22T15:56:45.419Z,100.00
2022-12-22T15:59:16.547Z,100.00
2022-12-22T16:01:41.876Z,100.00
2022-12-22T16:04:05.917Z,100.00
2022-12-22T16:06:29.947Z,100.00
2022-12-22T16:08:55.172Z,100.00
2022-12-22T16:11:19.691Z,100.00
2022-12-22T16:13:43.588Z,100.00
2022-12-22T16:16:08.596Z,100.00
2022-12-22T16:18:34.502Z,100.00
2022-12-22T16:21:07.305Z,100.00
2022-12-22T16:23:31.200Z,100.00
2022-12-22T16:26:01.737Z,99.29
2022-12-22T16:28:27.376Z,100.00
2022-12-22T16:30:52.576Z,100.00
2022-12-22T16:33:17.556Z,100.00
2022-12-22T16:35:43.351Z,100.00
2022-12-22T16:38:08.188Z,100.00
2022-12-22T16:40:35.851Z,98.44
2022-12-22T16:45:47.845Z,97.97
2022-12-22T16:48:17.631Z,98.15
2022-12-22T16:50:47.953Z,98.46
2022-12-22T16:53:14.563Z,98.75
2022-12-22T16:55:38.299Z,97.66
2022-12-22T16:58:05.558Z,99.58
2022-12-22T17:00:38.072Z,100.00
2022-12-22T17:03:06.409Z,100.00
2022-12-22T17:05:40.413Z,100.00
2022-12-22T17:08:18.855Z,100.00
2022-12-22T17:10:42.571Z,100.00
2022-12-22T17:13:06.217Z,100.00
2022-12-22T17:15:30.031Z,100.00
2022-12-22T17:17:54.640Z,100.00
2022-12-22T17:20:21.084Z,100.00
2022-12-22T17:22:49.359Z,99.22
2022-12-22T17:25:20.664Z,100.00
2022-12-22T17:27:44.586Z,100.00
2022-12-22T17:30:18.406Z,99.73
2022-12-22T17:32:42.413Z,99.64
2022-12-22T17:35:06.823Z,98.93
2022-12-22T17:37:30.951Z,98.14
2022-12-22T17:39:58.832Z,97.39
2022-12-22T17:42:25.584Z,97.05
2022-12-22T17:44:50.021Z,97.77
2022-12-22T17:47:16.035Z,100.00
2022-12-22T17:49:39.675Z,99.63
2022-12-22T17:52:03.464Z,98.75
2022-12-22T17:54:28.967Z,98.25
2022-12-22T17:56:53.199Z,98.62
2022-12-22T17:59:18.456Z,98.39
2022-12-22T18:01:42.451Z,97.19
2022-12-22T18:04:09.743Z,99.11
2022-12-22T18:06:36.237Z,97.97
2022-12-22T18:09:00.112Z,98.34
2022-12-22T18:11:24.489Z,99.05
2022-12-22T18:13:48.182Z,99.03
2022-12-22T18:16:18.631Z,99.26
2022-12-22T18:18:42.577Z,100.00
2022-12-22T18:21:08.233Z,100.00
2022-12-22T18:23:34.241Z,100.00
2022-12-22T18:25:58.214Z,100.00
2022-12-22T18:28:22.029Z,100.00
2022-12-22T18:30:46.183Z,100.00
2022-12-22T18:33:12.119Z,100.00
2022-12-22T18:35:36.381Z,100.00
2022-12-22T18:38:00.595Z,100.00
2022-12-22T18:40:28.800Z,100.00
2022-12-22T18:42:53.848Z,99.40
2022-12-22T18:45:18.030Z,98.73
2022-12-22T18:47:41.739Z,98.52
2022-12-22T18:50:08.509Z,98.98
2022-12-22T18:52:32.508Z,100.00
2022-12-22T18:54:56.276Z,100.00
2022-12-22T18:57:21.622Z,100.00
2022-12-22T18:59:46.098Z,100.00
2022-12-22T19:02:23.443Z,98.71
2022-12-22T19:04:47.473Z,99.85
2022-12-22T19:07:17.493Z,100.00
2022-12-22T19:09:42.762Z,98.57
2022-12-22T19:12:06.952Z,98.56
2022-12-22T19:14:31.111Z,98.21
2022-12-22T19:16:56.037Z,97.93
2022-12-22T19:19:21.889Z,97.37
2022-12-22T19:21:45.701Z,97.23
2022-12-22T19:24:11.063Z,96.87
2022-12-22T19:26:34.909Z,96.62
2022-12-22T19:29:01.305Z,96.64
2022-12-22T19:31:27.667Z,95.98
2022-12-22T19:33:51.913Z,96.52
2022-12-22T19:36:18.965Z,95.15
2022-12-22T19:38:46.002Z,96.00
2022-12-22T19:41:29.049Z,96.05
2022-12-22T19:43:52.864Z,95.47
2022-12-22T19:46:16.590Z,95.55
2022-12-22T19:48:40.611Z,96.49
2022-12-22T19:51:04.409Z,95.15
2022-12-22T19:53:28.084Z,94.19
2022-12-22T19:55:54.164Z,94.92
2022-12-22T19:58:23.343Z,94.32
2022-12-22T20:00:48.201Z,94.94
2022-12-22T20:03:13.585Z,96.03
2022-12-22T20:05:38.206Z,96.26
2022-12-22T20:08:02.934Z,96.27
2022-12-22T20:10:28.519Z,96.17
2022-12-22T20:12:55.730Z,95.90
2022-12-22T20:15:24.294Z,95.16
2022-12-22T20:17:49.012Z,96.45
2022-12-22T20:20:15.838Z,96.00
2022-12-22T20:22:39.877Z,95.31
2022-12-22T20:25:03.623Z,94.82
2022-12-22T20:27:34.454Z,96.31
2022-12-22T20:29:58.183Z,97.53
2022-12-22T20:32:28.059Z,98.63
2022-12-22T20:34:52.303Z,98.90
2022-12-22T20:37:18.136Z,99.97
2022-12-22T20:39:41.939Z,98.13
2022-12-22T20:42:05.693Z,99.53
2022-12-22T20:44:29.487Z,99.94
2022-12-22T20:46:53.167Z,99.76
2022-12-22T20:49:18.501Z,100.00
2022-12-22T20:51:42.558Z,99.99
2022-12-22T20:54:11.479Z,100.00
2022-12-22T20:56:38.702Z,100.00
2022-12-22T20:59:14.336Z,100.00
2022-12-22T21:01:38.172Z,100.00
2022-12-22T21:04:01.855Z,100.00
2022-12-22T21:06:30.858Z,100.00
2022-12-22T21:08:56.298Z,100.00
2022-12-22T21:11:20.166Z,100.00
2022-12-22T21:13:43.810Z,100.00
2022-12-22T21:16:12.872Z,99.93
2022-12-22T21:18:36.541Z,100.00
2022-12-22T21:21:00.260Z,99.89
2022-12-22T21:23:25.403Z,99.49
2022-12-22T21:25:54.419Z,98.56
2022-12-22T21:28:25.306Z,98.84
2022-12-22T21:30:49.136Z,98.24
2022-12-22T21:33:12.834Z,99.42
2022-12-22T21:35:37.993Z,98.64
2022-12-22T21:38:01.882Z,99.48
2022-12-22T21:40:29.613Z,99.70
2022-12-22T21:42:54.254Z,98.31
2022-12-22T21:45:20.939Z,98.13
2022-12-22T21:47:45.066Z,98.02
2022-12-22T21:50:15.849Z,97.31
2022-12-22T21:52:39.557Z,99.07
2022-12-22T21:55:05.287Z,98.36
2022-12-22T21:57:30.354Z,100.00
2022-12-22T21:59:54.046Z,99.92
2022-12-22T22:02:19.684Z,98.47
2022-12-22T22:04:48.360Z,99.88
2022-12-22T22:07:17.572Z,99.47
2022-12-22T22:09:41.219Z,99.28
2022-12-22T22:12:28.072Z,98.39
2022-12-22T22:14:53.436Z,98.91
2022-12-22T22:17:17.076Z,99.76
2022-12-22T22:19:40.812Z,99.71
2022-12-22T22:22:04.634Z,99.12
2022-12-22T22:24:28.462Z,99.03
2022-12-22T22:26:52.243Z,100.00
2022-12-22T22:29:16.175Z,99.48
2022-12-22T22:31:41.802Z,98.79
2022-12-22T22:34:05.521Z,99.00
2022-12-22T22:36:29.192Z,97.76
2022-12-22T22:38:53.142Z,98.17
2022-12-22T22:41:16.768Z,97.26
2022-12-22T22:43:40.502Z,97.32
2022-12-22T22:46:04.185Z,96.78
2022-12-22T22:48:29.281Z,97.26
2022-12-22T22:50:53.595Z,95.77
2022-12-22T22:53:17.363Z,96.18
2022-12-22T22:55:41.053Z,95.37
2022-12-22T22:58:04.802Z,94.36
2022-12-22T23:00:28.501Z,94.19
2022-12-22T23:02:52.240Z,94.42
2022-12-22T23:05:22.662Z,94.50
2022-12-22T23:07:47.357Z,94.34
2022-12-22T23:10:11.791Z,93.77
2022-12-22T23:12:35.569Z,94.45
2022-12-22T23:15:00.876Z,93.72
2022-12-22T23:17:25.083Z,96.75
2022-12-22T23:19:48.705Z,96.62
2022-12-22T23:22:13.865Z,99.37
2022-12-22T23:24:37.774Z,97.69
2022-12-22T23:27:01.471Z,98.81
2022-12-22T23:29:25.337Z,96.99
2022-12-22T23:31:49.059Z,96.66
2022-12-22T23:34:13.630Z,97.17
2022-12-22T23:36:37.281Z,96.12
2022-12-22T23:39:02.339Z,95.43
2022-12-22T23:41:26.093Z,95.27
2022-12-22T23:43:49.813Z,95.44
2022-12-22T23:46:16.949Z,95.73
2022-12-22T23:48:41.620Z,95.44
2022-12-22T23:51:06.028Z,95.38
2022-12-22T23:53:29.722Z,95.74
2022-12-22T23:55:54.734Z,96.79
2022-12-22T23:58:19.100Z,96.22
